sensor_id;sensor_type;location;lat;lon;timestamp;pressure;altitude;pressure_sealevel;temperature;humidity
55592;BME280;41454;53.396;-1.510;2022-09-20T00:01:11;101128.02;;;9.08;100.00
55592;BME280;41454;53.396;-1.510;2022-09-20T00:03:41;101124.80;;;8.90;100.00
55592;BME280;41454;53.396;-1.510;2022-09-20T00:06:10;101126.65;;;9.10;100.00
55592;BME280;41454;53.396;-1.510;2022-09-20T00:08:39;101123.96;;;8.75;100.00
55592;BME280;41454;53.396;-1.510;2022-09-20T00:11:08;101121.92;;;9.54;100.00
55592;BME280;41454;53.396;-1.510;2022-09-20T00:13:38;101116.70;;;10.77;100.00
55592;BME280;41454;53.396;-1.510;2022-09-20T00:16:07;101118.38;;;9.58;100.00
55592;BME280;41454;53.396;-1.510;2022-09-20T00:18:35;101109.42;;;10.53;100.00
55592;BME280;41454;53.396;-1.510;2022-09-20T00:21:03;101106.13;;;11.08;100.00
55592;BME280;41454;53.396;-1.510;2022-09-20T00:23:31;101099.63;;;11.16;100.00
55592;BME280;41454;53.396;-1.510;2022-09-20T00:26:01;101101.94;;;10.60;100.00
55592;BME280;41454;53.396;-1.510;2022-09-20T00:28:30;101101.81;;;10.92;100.00
55592;BME280;41454;53.396;-1.510;2022-09-20T00:30:58;101101.93;;;11.36;100.00
55592;BME280;41454;53.396;-1.510;2022-09-20T00:33:25;101105.73;;;10.70;100.00
55592;BME280;41454;53.396;-1.510;2022-09-20T00:35:52;101104.98;;;10.75;100.00
55592;BME280;41454;53.396;-1.510;2022-09-20T00:38:24;101102.20;;;10.73;100.00
55592;BME280;41454;53.396;-1.510;2022-09-20T00:40:51;101106.69;;;10.86;100.00
55592;BME280;41454;53.396;-1.510;2022-09-20T00:43:35;101110.51;;;9.60;100.00
55592;BME280;41454;53.396;-1.510;2022-09-20T00:46:03;101110.83;;;9.52;100.00
55592;BME280;41454;53.396;-1.510;2022-09-20T00:48:32;101117.11;;;9.66;100.00
55592;BME280;41454;53.396;-1.510;2022-09-20T00:51:05;101120.38;;;9.09;100.00
55592;BME280;41454;53.396;-1.510;2022-09-20T00:53:37;101120.37;;;9.37;100.00
55592;BME280;41454;53.396;-1.510;2022-09-20T00:56:08;101122.03;;;8.66;100.00
55592;BME280;41454;53.396;-1.510;2022-09-20T00:58:38;101122.13;;;9.39;100.00
55592;BME280;41454;53.396;-1.510;2022-09-20T01:01:09;101125.49;;;9.35;100.00
55592;BME280;41454;53.396;-1.510;2022-09-20T01:03:37;101125.79;;;9.51;100.00
55592;BME280;41454;53.396;-1.510;2022-09-20T01:06:07;101127.53;;;9.76;100.00
55592;BME280;41454;53.396;-1.510;2022-09-20T01:08:36;101125.74;;;10.22;100.00
55592;BME280;41454;53.396;-1.510;2022-09-20T01:11:04;101123.52;;;10.27;100.00
55592;BME280;41454;53.396;-1.510;2022-09-20T01:13:31;101124.24;;;10.57;100.00
55592;BME280;41454;53.396;-1.510;2022-09-20T01:16:00;101129.56;;;9.03;100.00
55592;BME280;41454;53.396;-1.510;2022-09-20T01:18:28;101130.32;;;10.01;100.00
55592;BME280;41454;53.396;-1.510;2022-09-20T01:20:58;101133.50;;;9.63;100.00
55592;BME280;41454;53.396;-1.510;2022-09-20T01:23:33;101129.54;;;9.85;100.00
55592;BME280;41454;53.396;-1.510;2022-09-20T01:27:12;101131.45;;;9.60;100.00
55592;BME280;41454;53.396;-1.510;2022-09-20T01:29:57;101123.93;;;10.25;100.00
55592;BME280;41454;53.396;-1.510;2022-09-20T01:32:33;101125.48;;;9.54;100.00
55592;BME280;41454;53.396;-1.510;2022-09-20T01:35:01;101122.18;;;10.02;100.00
55592;BME280;41454;53.396;-1.510;2022-09-20T01:37:36;101127.43;;;9.74;100.00
55592;BME280;41454;53.396;-1.510;2022-09-20T01:40:13;101129.72;;;9.55;100.00
55592;BME280;41454;53.396;-1.510;2022-09-20T01:42:54;101122.72;;;9.76;100.00
55592;BME280;41454;53.396;-1.510;2022-09-20T01:45:27;101128.72;;;9.67;100.00
55592;BME280;41454;53.396;-1.510;2022-09-20T01:48:06;101121.21;;;10.57;100.00
55592;BME280;41454;53.396;-1.510;2022-09-20T01:50:40;101121.25;;;10.27;100.00
55592;BME280;41454;53.396;-1.510;2022-09-20T01:53:29;101122.89;;;10.62;100.00
55592;BME280;41454;53.396;-1.510;2022-09-20T01:56:47;101118.45;;;9.91;100.00
55592;BME280;41454;53.396;-1.510;2022-09-20T01:59:34;101119.08;;;9.50;100.00
55592;BME280;41454;53.396;-1.510;2022-09-20T02:02:28;101116.67;;;9.12;100.00
55592;BME280;41454;53.396;-1.510;2022-09-20T02:05:15;101111.81;;;9.24;100.00
55592;BME280;41454;53.396;-1.510;2022-09-20T02:07:58;101110.89;;;9.34;100.00
55592;BME280;41454;53.396;-1.510;2022-09-20T02:10:45;101105.92;;;9.95;100.00
55592;BME280;41454;53.396;-1.510;2022-09-20T02:13:26;101106.31;;;10.61;100.00
55592;BME280;41454;53.396;-1.510;2022-09-20T02:16:09;101097.74;;;11.12;100.00
55592;BME280;41454;53.396;-1.510;2022-09-20T02:18:54;101102.78;;;10.35;100.00
55592;BME280;41454;53.396;-1.510;2022-09-20T02:21:29;101096.49;;;11.10;100.00
55592;BME280;41454;53.396;-1.510;2022-09-20T02:24:09;101093.93;;;11.27;100.00
55592;BME280;41454;53.396;-1.510;2022-09-20T02:26:48;101091.26;;;11.18;100.00
55592;BME280;41454;53.396;-1.510;2022-09-20T02:29:28;101091.20;;;12.17;100.00
55592;BME280;41454;53.396;-1.510;2022-09-20T02:32:10;101089.58;;;11.75;100.00
55592;BME280;41454;53.396;-1.510;2022-09-20T02:34:56;101089.19;;;11.25;100.00
55592;BME280;41454;53.396;-1.510;2022-09-20T02:37:44;101087.35;;;10.34;100.00
55592;BME280;41454;53.396;-1.510;2022-09-20T02:40:25;101088.22;;;10.76;100.00
55592;BME280;41454;53.396;-1.510;2022-09-20T02:43:03;101084.42;;;11.10;100.00
55592;BME280;41454;53.396;-1.510;2022-09-20T02:45:41;101087.59;;;10.94;100.00
55592;BME280;41454;53.396;-1.510;2022-09-20T02:48:10;101086.23;;;10.46;100.00
55592;BME280;41454;53.396;-1.510;2022-09-20T02:50:48;101084.56;;;10.48;100.00
55592;BME280;41454;53.396;-1.510;2022-09-20T02:53:29;101080.65;;;10.46;100.00
55592;BME280;41454;53.396;-1.510;2022-09-20T02:56:06;101079.37;;;10.45;100.00
55592;BME280;41454;53.396;-1.510;2022-09-20T02:58:45;101075.01;;;10.10;100.00
55592;BME280;41454;53.396;-1.510;2022-09-20T03:01:25;101075.71;;;9.99;100.00
55592;BME280;41454;53.396;-1.510;2022-09-20T03:04:06;101076.95;;;10.24;100.00
55592;BME280;41454;53.396;-1.510;2022-09-20T03:06:42;101074.15;;;10.46;100.00
55592;BME280;41454;53.396;-1.510;2022-09-20T03:09:25;101073.58;;;10.57;100.00
55592;BME280;41454;53.396;-1.510;2022-09-20T03:12:02;101071.21;;;10.76;100.00
55592;BME280;41454;53.396;-1.510;2022-09-20T03:14:36;101069.02;;;10.64;100.00
55592;BME280;41454;53.396;-1.510;2022-09-20T03:17:16;101069.13;;;10.79;100.00
55592;BME280;41454;53.396;-1.510;2022-09-20T03:19:55;101063.79;;;10.69;100.00
55592;BME280;41454;53.396;-1.510;2022-09-20T03:22:30;101061.75;;;11.30;100.00
55592;BME280;41454;53.396;-1.510;2022-09-20T03:26:25;101061.89;;;11.22;100.00
55592;BME280;41454;53.396;-1.510;2022-09-20T03:29:02;101064.62;;;10.68;100.00
55592;BME280;41454;53.396;-1.510;2022-09-20T03:31:40;101062.43;;;10.97;100.00
55592;BME280;41454;53.396;-1.510;2022-09-20T03:34:19;101061.35;;;10.57;100.00
55592;BME280;41454;53.396;-1.510;2022-09-20T03:37:01;101057.18;;;10.54;100.00
55592;BME280;41454;53.396;-1.510;2022-09-20T03:39:48;101056.81;;;10.33;100.00
55592;BME280;41454;53.396;-1.510;2022-09-20T03:42:25;101056.38;;;10.41;100.00
55592;BME280;41454;53.396;-1.510;2022-09-20T03:45:14;101058.12;;;10.25;100.00
55592;BME280;41454;53.396;-1.510;2022-09-20T03:48:24;101059.28;;;10.52;100.00
55592;BME280;41454;53.396;-1.510;2022-09-20T03:51:07;101059.67;;;10.58;100.00
55592;BME280;41454;53.396;-1.510;2022-09-20T03:54:07;101058.42;;;10.58;100.00
55592;BME280;41454;53.396;-1.510;2022-09-20T03:57:19;101057.74;;;10.91;100.00
55592;BME280;41454;53.396;-1.510;2022-09-20T04:00:02;101061.43;;;11.70;100.00
55592;BME280;41454;53.396;-1.510;2022-09-20T04:02:40;101059.20;;;12.45;100.00
55592;BME280;41454;53.396;-1.510;2022-09-20T04:05:14;101053.38;;;11.94;100.00
55592;BME280;41454;53.396;-1.510;2022-09-20T04:07:52;101051.56;;;10.88;100.00
55592;BME280;41454;53.396;-1.510;2022-09-20T04:10:32;101051.76;;;11.83;100.00
55592;BME280;41454;53.396;-1.510;2022-09-20T04:13:16;101055.01;;;11.73;100.00
55592;BME280;41454;53.396;-1.510;2022-09-20T04:15:57;101053.30;;;10.28;100.00
55592;BME280;41454;53.396;-1.510;2022-09-20T04:18:32;101049.96;;;11.90;100.00
55592;BME280;41454;53.396;-1.510;2022-09-20T04:21:33;101051.19;;;10.88;100.00
55592;BME280;41454;53.396;-1.510;2022-09-20T04:24:10;101054.47;;;10.60;100.00
55592;BME280;41454;53.396;-1.510;2022-09-20T04:26:43;101055.63;;;10.77;100.00
55592;BME280;41454;53.396;-1.510;2022-09-20T04:29:23;101055.45;;;11.63;100.00
55592;BME280;41454;53.396;-1.510;2022-09-20T04:31:56;101052.24;;;10.25;100.00
55592;BME280;41454;53.396;-1.510;2022-09-20T04:34:32;101057.79;;;9.12;100.00
55592;BME280;41454;53.396;-1.510;2022-09-20T04:37:02;101053.42;;;10.32;100.00
55592;BME280;41454;53.396;-1.510;2022-09-20T04:39:51;101050.30;;;10.27;100.00
55592;BME280;41454;53.396;-1.510;2022-09-20T04:42:58;101051.95;;;10.55;100.00
55592;BME280;41454;53.396;-1.510;2022-09-20T04:48:01;101058.34;;;10.94;100.00
55592;BME280;41454;53.396;-1.510;2022-09-20T04:50:56;101064.75;;;10.24;100.00
55592;BME280;41454;53.396;-1.510;2022-09-20T04:53:45;101062.57;;;11.17;100.00
55592;BME280;41454;53.396;-1.510;2022-09-20T04:56:20;101065.09;;;11.09;100.00
55592;BME280;41454;53.396;-1.510;2022-09-20T04:59:04;101065.81;;;10.99;100.00
55592;BME280;41454;53.396;-1.510;2022-09-20T05:01:58;101067.71;;;11.12;100.00
55592;BME280;41454;53.396;-1.510;2022-09-20T05:05:03;101068.29;;;11.05;100.00
55592;BME280;41454;53.396;-1.510;2022-09-20T05:08:02;101070.00;;;10.42;100.00
55592;BME280;41454;53.396;-1.510;2022-09-20T05:11:23;101065.91;;;10.60;100.00
55592;BME280;41454;53.396;-1.510;2022-09-20T05:16:18;101065.23;;;11.34;100.00
55592;BME280;41454;53.396;-1.510;2022-09-20T05:19:01;101069.65;;;10.66;100.00
55592;BME280;41454;53.396;-1.510;2022-09-20T05:21:43;101069.52;;;10.20;100.00
55592;BME280;41454;53.396;-1.510;2022-09-20T05:24:24;101071.12;;;10.41;100.00
55592;BME280;41454;53.396;-1.510;2022-09-20T05:27:10;101076.65;;;10.05;100.00
55592;BME280;41454;53.396;-1.510;2022-09-20T05:29:50;101081.25;;;10.20;100.00
55592;BME280;41454;53.396;-1.510;2022-09-20T05:32:23;101083.39;;;10.38;100.00
55592;BME280;41454;53.396;-1.510;2022-09-20T05:34:57;101081.36;;;10.89;100.00
55592;BME280;41454;53.396;-1.510;2022-09-20T05:37:36;101083.38;;;9.73;100.00
55592;BME280;41454;53.396;-1.510;2022-09-20T05:40:17;101084.62;;;10.40;100.00
55592;BME280;41454;53.396;-1.510;2022-09-20T05:42:54;101083.73;;;11.58;100.00
55592;BME280;41454;53.396;-1.510;2022-09-20T05:45:50;101085.13;;;10.41;100.00
55592;BME280;41454;53.396;-1.510;2022-09-20T05:55:50;101090.50;;;11.17;100.00
55592;BME280;41454;53.396;-1.510;2022-09-20T05:58:36;101095.28;;;10.36;100.00
